Terminal Aerodrome Forecast
Issued by NWS

Home | Current Version | Previous Version | Text Only | Print | Product List | Glossary On
Versions: 1 2 3 4 5 6 7 8 9 10 11 12 13 14 15 16 17 18 19 20 21 22 23 24 25 26 27 28 29
021
FTUS41 KBGM 051738
TAFELM
TAF
KELM 051738Z 0518/0618 03010KT P6SM BKN035
     FM060000 01004KT P6SM BKN040
      TEMPO 0602/0606 -RA
     FM060600 VRB06KT P6SM -RA OVC025
     FM061300 03010KT P6SM BKN035
      TEMPO 0615/0618 5SM -RA BR=

USA.gov is the U.S. government's official web portal to all federal, state and local government web resources and services.